Time;durP1;ratioP1;P1;durP2;ratioP2;P2;SDS_P1;SDS_P2;PMS_P1;PMS_P2;Temp;Humidity;BMP_temperature;BMP_pressure;BME280_temperature;BME280_humidity;BME280_pressure;Samples;Min_cycle;Max_cycle;Signal;HPM_P1;HPM_P2
2023/03/08 12:23:26;;;;;;;2.13;1.65;;;15.60;52.30;;;;;;5006503;28;45343;-80
2023/03/08 12:25:57;;;;;;;7.75;2.17;;;15.60;52.10;;;;;;5000508;28;45571;-76
2023/03/08 12:28:28;;;;;;;6.70;2.35;;;15.70;60.90;;;;;;5000881;28;45283;-72
2023/03/08 12:31:07;;;;;;;3.63;1.70;;;15.80;58.50;;;;;;4989642;28;45272;-72
2023/03/08 12:33:35;;;;;;;3.28;1.88;;;15.80;56.10;;;;;;5000095;28;45272;-72
2023/03/08 12:36:04;;;;;;;4.07;2.55;;;15.70;56.10;;;;;;4984430;28;45348;-72
2023/03/08 12:38:36;;;;;;;2.35;1.58;;;15.70;56.20;;;;;;5001576;28;45372;-73
2023/03/08 12:41:05;;;;;;;2.10;1.55;;;15.60;56.10;;;;;;4974846;28;45358;-70
2023/03/08 12:43:35;;;;;;;3.95;1.83;;;15.60;56.20;;;;;;4982266;28;45315;-72
2023/03/08 12:46:06;;;;;;;2.33;1.80;;;15.60;56.60;;;;;;4996269;28;45362;-72
2023/03/08 12:48:36;;;;;;;3.67;1.88;;;15.60;57.00;;;;;;4982104;28;45362;-73
2023/03/08 12:51:08;;;;;;;2.08;1.65;;;15.60;57.00;;;;;;4992251;28;47122;-73
2023/03/08 12:53:43;;;;;;;2.50;1.70;;;15.60;57.20;;;;;;4992100;28;45428;-73
2023/03/08 12:56:24;;;;;;;3.15;2.20;;;15.60;57.50;;;;;;4986756;28;45400;-73
2023/03/08 12:58:54;;;;;;;2.03;1.83;;;15.60;57.80;;;;;;4997059;28;45477;-73
2023/03/08 13:01:39;;;;;;;2.75;1.60;;;15.60;58.10;;;;;;4991500;28;46836;-73
2023/03/08 13:04:25;;;;;;;3.75;2.00;;;15.60;58.20;;;;;;4997253;28;45380;-73
2023/03/08 13:07:27;;;;;;;3.17;2.00;;;15.70;58.60;;;;;;4991808;28;45474;-73
2023/03/08 13:10:01;;;;;;;2.08;1.48;;;15.70;58.80;;;;;;4973001;28;45363;-73
2023/03/08 13:12:39;;;;;;;3.45;1.90;;;15.70;59.00;;;;;;4994741;28;45554;-74
2023/03/08 13:15:25;;;;;;;2.80;2.03;;;15.70;59.50;;;;;;4976365;28;45508;-74
2023/03/08 13:17:59;;;;;;;2.42;1.90;;;15.70;59.60;;;;;;4977971;28;45345;-74
2023/03/08 13:20:33;;;;;;;2.55;1.90;;;15.70;59.90;;;;;;4992543;28;45329;-74
2023/03/08 13:23:06;;;;;;;3.00;1.75;;;15.70;59.90;;;;;;4989549;28;47455;-74
2023/03/08 13:25:56;;;;;;;3.80;2.08;;;15.70;60.10;;;;;;4986296;28;45454;-75
2023/03/08 13:28:25;;;;;;;2.35;1.90;;;15.60;60.30;;;;;;4984904;28;45352;-75
2023/03/08 13:30:54;;;;;;;2.35;1.80;;;15.70;60.50;;;;;;4999830;28;45501;-75
2023/03/08 13:33:24;;;;;;;2.53;1.92;;;15.70;60.50;;;;;;4984573;28;47328;-75
2023/03/08 13:35:56;;;;;;;1.90;1.50;;;15.60;60.80;;;;;;4984977;28;45339;-75
2023/03/08 13:38:24;;;;;;;2.85;1.83;;;15.70;61.00;;;;;;4993452;28;45351;-75
2023/03/08 13:40:54;;;;;;;2.28;2.05;;;15.70;61.00;;;;;;4985569;28;45410;-76
2023/03/08 13:43:22;;;;;;;2.30;1.83;;;15.60;60.80;;;;;;4985051;28;46695;-76
2023/03/08 13:45:50;;;;;;;2.60;1.92;;;15.70;61.20;;;;;;4985732;28;45415;-76
2023/03/08 13:48:18;;;;;;;5.82;2.25;;;15.60;61.20;;;;;;4986314;28;45216;-76
2023/03/08 13:50:49;;;;;;;3.63;2.30;;;15.70;61.50;;;;;;4966880;28;45178;-77
2023/03/08 13:53:19;;;;;;;3.47;2.13;;;15.70;61.50;;;;;;4966524;28;48132;-77
2023/03/08 13:55:48;;;;;;;3.35;2.35;;;15.70;61.50;;;;;;4966717;28;45342;-77
2023/03/08 13:58:31;;;;;;;2.85;2.30;;;15.70;61.50;;;;;;4967203;28;45323;-77
2023/03/08 14:01:02;;;;;;;3.10;2.40;;;15.70;61.60;;;;;;4972731;28;45335;-78
2023/03/08 14:03:31;;;;;;;2.95;2.35;;;15.80;61.60;;;;;;4986508;28;45459;-78
2023/03/08 14:05:58;;;;;;;3.60;2.80;;;15.80;61.70;;;;;;4986620;28;45344;-78
2023/03/08 14:08:27;;;;;;;4.38;3.03;;;15.80;61.50;;;;;;4986769;28;45193;-78
2023/03/08 14:10:58;;;;;;;3.17;2.22;;;15.80;61.70;;;;;;4989845;28;45585;-79
2023/03/08 14:13:30;;;;;;;3.20;2.03;;;15.80;61.60;;;;;;4988228;28;48218;-79
2023/03/08 14:16:00;;;;;;;3.08;2.22;;;15.80;61.70;;;;;;4986613;28;45144;-80
2023/03/08 14:18:36;;;;;;;3.42;2.22;;;15.80;61.60;;;;;;4986719;28;45253;-79
2023/03/08 14:21:13;;;;;;;2.47;1.90;;;15.80;61.50;;;;;;4986809;28;45319;-80
2023/03/08 14:23:42;;;;;;;2.67;1.90;;;15.80;62.50;;;;;;4986282;28;48591;-80
2023/03/08 14:26:24;;;;;;;2.80;2.08;;;15.80;61.50;;;;;;4986099;28;45291;-81
2023/03/08 14:29:03;;;;;;;2.58;1.83;;;15.80;60.80;;;;;;4986762;28;45161;-81
2023/03/08 14:31:30;;;;;;;2.90;2.10;;;15.80;60.50;;;;;;4989960;28;45308;-81
2023/03/08 14:33:59;;;;;;;3.45;2.35;;;15.80;60.10;;;;;;4989554;28;47028;-81
2023/03/08 14:36:26;;;;;;;2.33;1.98;;;15.80;60.30;;;;;;4989718;28;45115;-80
2023/03/08 14:38:54;;;;;;;3.08;2.05;;;15.80;59.90;;;;;;4989752;28;45202;-81
2023/03/08 14:41:31;;;;;;;2.60;1.90;;;15.80;59.80;;;;;;4989898;28;45308;-81
2023/03/08 14:44:00;;;;;;;4.60;1.90;;;15.80;60.00;;;;;;4989897;28;45327;-82
2023/03/08 14:46:28;;;;;;;3.28;2.03;;;15.80;59.70;;;;;;4989305;28;45173;-81
2023/03/08 14:49:00;;;;;;;3.22;2.05;;;15.80;59.70;;;;;;4989419;28;45390;-81
2023/03/08 14:51:29;;;;;;;4.38;2.00;;;15.80;59.80;;;;;;4989495;28;45541;-81
2023/03/08 14:53:59;;;;;;;2.40;1.73;;;15.80;59.40;;;;;;4989036;28;48185;-81
2023/03/08 14:56:26;;;;;;;2.72;1.58;;;15.80;59.60;;;;;;4989454;28;45142;-82
2023/03/08 14:58:53;;;;;;;3.15;1.73;;;15.80;59.60;;;;;;4989592;28;45166;-82
2023/03/08 15:01:26;;;;;;;2.65;1.77;;;15.80;59.20;;;;;;4989559;28;45435;-81
2023/03/08 15:03:52;;;;;;;2.90;1.55;;;15.80;59.20;;;;;;4989390;28;47897;-82
2023/03/08 15:06:23;;;;;;;4.40;1.70;;;15.80;59.40;;;;;;4995585;28;46043;-82
2023/03/08 15:08:50;;;;;;;2.63;1.70;;;15.80;59.10;;;;;;4995082;28;45135;-82
2023/03/08 15:11:17;;;;;;;3.60;1.70;;;15.80;59.10;;;;;;4989802;28;45466;-82
2023/03/08 15:13:45;;;;;;;2.55;1.75;;;15.70;59.00;;;;;;4989037;28;48838;-83
2023/03/08 15:16:12;;;;;;;1.65;1.20;;;15.80;59.10;;;;;;4989179;28;45355;-82
2023/03/08 15:18:40;;;;;;;2.72;1.65;;;15.80;58.90;;;;;;4989237;28;45241;-83
2023/03/08 15:21:10;;;;;;;2.92;1.50;;;15.70;58.80;;;;;;4988923;28;45410;-81
2023/03/08 15:23:38;;;;;;;2.60;1.65;;;15.80;58.80;;;;;;4989002;28;47304;-83
2023/03/08 15:26:06;;;;;;;2.67;1.52;;;15.80;58.80;;;;;;4988836;28;45358;-82
2023/03/08 15:28:33;;;;;;;2.35;1.38;;;15.70;58.60;;;;;;4988816;28;45172;-82
2023/03/08 15:31:00;;;;;;;1.73;1.35;;;15.80;58.80;;;;;;4988883;28;45404;-82
2023/03/08 15:33:27;;;;;;;2.08;1.48;;;15.70;58.70;;;;;;4971911;28;47372;-82
2023/03/08 15:35:55;;;;;;;2.05;1.52;;;15.80;59.00;;;;;;4988448;28;45232;-82
2023/03/08 15:38:23;;;;;;;2.80;1.30;;;15.70;58.90;;;;;;4988646;28;45181;-83
2023/03/08 15:40:50;;;;;;;2.28;1.58;;;15.70;59.20;;;;;;4988679;28;45438;-83
2023/03/08 15:43:18;;;;;;;2.25;1.50;;;15.70;59.00;;;;;;4988730;28;48191;-82
2023/03/08 15:45:45;;;;;;;2.13;1.63;;;15.80;59.10;;;;;;4988402;28;45314;-83
2023/03/08 16:22:31;;;;;;;1.70;1.50;;;15.70;58.40;;;;;;5587278;23;45628;-81
2023/03/08 16:24:58;;;;;;;3.03;1.90;;;15.70;59.00;;;;;;4988058;28;45097;-81
2023/03/08 16:27:25;;;;;;;2.78;1.52;;;15.70;58.10;;;;;;4988025;28;45154;-81
2023/03/08 16:29:53;;;;;;;2.83;1.67;;;15.70;58.30;;;;;;4987936;28;45128;-80
2023/03/08 16:32:20;;;;;;;2.55;1.58;;;15.70;58.60;;;;;;4988455;28;45155;-80
2023/03/08 16:34:49;;;;;;;2.13;1.45;;;15.80;58.80;;;;;;4988162;28;45224;-81
2023/03/08 16:37:17;;;;;;;1.60;1.33;;;15.70;58.50;;;;;;4987767;28;47549;-81
2023/03/08 16:39:48;;;;;;;3.65;2.20;;;15.70;58.70;;;;;;4987645;28;45258;-80
2023/03/08 16:42:15;;;;;;;4.07;1.80;;;15.80;58.80;;;;;;4988116;28;45125;-80
2023/03/08 16:44:48;;;;;;;3.97;2.00;;;15.80;58.70;;;;;;4988060;28;45089;-80
2023/03/08 16:47:15;;;;;;;1.80;1.38;;;15.80;58.70;;;;;;4987701;28;46288;-80
2023/03/08 16:49:42;;;;;;;3.28;1.63;;;15.70;58.60;;;;;;4987839;28;45074;-81
2023/03/08 16:52:09;;;;;;;4.15;1.83;;;15.70;58.40;;;;;;4986240;28;45409;-79
2023/03/08 16:54:36;;;;;;;3.05;1.90;;;15.70;58.50;;;;;;4987783;28;45366;-79
2023/03/08 16:57:04;;;;;;;3.90;1.90;;;15.70;58.40;;;;;;4987508;28;48099;-79
2023/03/08 16:59:31;;;;;;;2.85;1.55;;;15.70;58.50;;;;;;4998179;28;45306;-80
2023/03/08 17:01:58;;;;;;;1.95;1.50;;;15.60;58.50;;;;;;4989306;28;45270;-80
2023/03/08 17:04:25;;;;;;;2.80;1.73;;;15.70;58.60;;;;;;4987490;28;45366;-79
2023/03/08 17:06:51;;;;;;;4.53;1.63;;;15.70;58.50;;;;;;4987240;28;46459;-79
2023/03/08 17:09:18;;;;;;;3.10;1.75;;;15.60;58.40;;;;;;4987817;28;45254;-81
2023/03/08 17:11:45;;;;;;;3.10;1.80;;;15.70;58.50;;;;;;4987539;28;45117;-80
2023/03/08 17:14:14;;;;;;;2.13;1.42;;;15.60;58.50;;;;;;4987334;28;45159;-78
2023/03/08 17:16:42;;;;;;;1.92;1.73;;;15.70;58.50;;;;;;4986990;28;46571;-78
2023/03/08 17:19:10;;;;;;;2.58;1.70;;;15.70;58.40;;;;;;4987576;28;45078;-79
2023/03/08 17:21:37;;;;;;;4.07;2.03;;;15.70;58.40;;;;;;4986914;28;45132;-80
2023/03/08 17:24:07;;;;;;;3.10;1.85;;;15.80;58.50;;;;;;4987477;28;45436;-79
2023/03/08 17:26:35;;;;;;;2.53;1.70;;;15.80;58.60;;;;;;4987112;28;47472;-80
2023/03/08 17:29:03;;;;;;;2.85;1.60;;;15.80;58.50;;;;;;4986862;28;45225;-80
2023/03/08 17:31:31;;;;;;;2.13;1.85;;;15.70;58.70;;;;;;4987225;28;45204;-80
2023/03/08 17:33:58;;;;;;;3.20;1.77;;;15.70;58.60;;;;;;4987400;28;45196;-79
2023/03/08 17:36:26;;;;;;;2.58;1.73;;;15.70;58.70;;;;;;4986653;28;46402;-80
2023/03/08 17:38:56;;;;;;;3.15;2.05;;;15.70;58.50;;;;;;4987150;28;45121;-80
2023/03/08 17:41:25;;;;;;;4.28;1.92;;;15.70;58.50;;;;;;4987051;28;45314;-80
2023/03/08 17:43:54;;;;;;;1.88;1.55;;;15.70;58.60;;;;;;4986673;28;45550;-80
2023/03/08 17:46:26;;;;;;;4.15;1.90;;;15.70;58.40;;;;;;4986752;28;46653;-80
2023/03/08 17:48:56;;;;;;;2.50;1.67;;;15.70;58.40;;;;;;4986518;28;45258;-80
2023/03/08 17:51:28;;;;;;;2.78;1.90;;;15.70;58.20;;;;;;4987080;28;45311;-80
2023/03/08 17:53:58;;;;;;;2.47;1.73;;;15.70;58.10;;;;;;4988080;28;45237;-78
2023/03/08 17:56:29;;;;;;;2.83;1.92;;;15.60;57.90;;;;;;4994497;28;45709;-80
2023/03/08 17:58:57;;;;;;;4.25;2.20;;;15.70;57.90;;;;;;4986937;28;45180;-80
2023/03/08 18:01:28;;;;;;;2.38;1.80;;;15.70;57.80;;;;;;4986426;28;45101;-81
2023/03/08 18:03:59;;;;;;;3.47;1.90;;;15.60;57.70;;;;;;4986253;28;45573;-80
2023/03/08 18:06:30;;;;;;;2.97;2.20;;;15.60;57.60;;;;;;4986483;28;45839;-81
2023/03/08 18:08:58;;;;;;;114.22;8.63;;;15.60;57.50;;;;;;4984282;28;45323;-73
2023/03/08 18:22:22;;;;;;;8.75;2.22;;;15.90;58.70;;;;;;4986258;28;45112;-82
